Time;durP1;ratioP1;P1;durP2;ratioP2;P2;SDS_P1;SDS_P2;PMS_P1;PMS_P2;Temp;Humidity;BMP_temperature;BMP_pressure;BME280_temperature;BME280_humidity;BME280_pressure;Samples;Min_cycle;Max_cycle;Signal;HPM_P1;HPM_P2
2020/12/10 00:00:31;;;;;;;38.13;6.10;;;22.30;23.10;;;;;;5046070;28;20455;-63
2020/12/10 00:02:58;;;;;;;35.58;5.72;;;22.20;23.70;;;;;;5047649;28;20064;-63
2020/12/10 00:05:25;;;;;;;23.17;5.75;;;22.10;23.90;;;;;;5048107;28;20072;-63
2020/12/10 00:07:52;;;;;;;37.75;6.15;;;21.90;23.90;;;;;;5045461;28;20093;-63
2020/12/10 00:10:18;;;;;;;37.00;5.90;;;21.80;24.40;;;;;;5047371;28;20075;-62
2020/12/10 00:12:45;;;;;;;36.90;5.65;;;21.70;25.10;;;;;;5046665;28;20528;-63
2020/12/10 00:15:13;;;;;;;27.60;6.00;;;21.50;25.20;;;;;;5047945;28;20507;-62
2020/12/10 00:17:39;;;;;;;30.73;5.97;;;21.40;25.60;;;;;;5046361;28;20130;-64
2020/12/10 00:20:08;;;;;;;36.45;6.32;;;21.30;26.10;;;;;;5030451;28;20103;-65
2020/12/10 00:22:35;;;;;;;37.28;6.22;;;21.10;26.40;;;;;;5046208;28;20447;-62
2020/12/10 00:25:05;;;;;;;41.13;6.65;;;21.00;26.90;;;;;;5044921;28;20070;-63
2020/12/10 00:27:32;;;;;;;47.30;6.30;;;20.90;27.20;;;;;;5055996;28;20121;-65
2020/12/10 00:29:58;;;;;;;44.03;6.82;;;20.70;27.50;;;;;;5075516;28;20149;-65
2020/12/10 00:32:25;;;;;;;34.75;6.13;;;20.60;27.60;;;;;;5071346;28;20065;-64
2020/12/10 00:34:56;;;;;;;36.60;6.03;;;20.40;27.50;;;;;;5071840;28;20125;-63
2020/12/10 00:37:27;;;;;;;41.00;6.57;;;20.30;27.40;;;;;;5084099;28;20495;-63
2020/12/10 00:39:54;;;;;;;57.88;7.70;;;20.20;28.20;;;;;;5070207;28;20094;-62
2020/12/10 00:42:21;;;;;;;54.85;7.40;;;20.00;28.90;;;;;;5069827;28;20554;-64
2020/12/10 00:44:47;;;;;;;41.13;6.50;;;19.90;28.90;;;;;;5073198;28;20079;-63
2020/12/10 00:47:19;;;;;;;;;;;19.80;29.50;;;;;;5062080;28;20091;-63
2020/12/10 00:49:47;;;;;;;68.07;8.00;;;19.70;29.00;;;;;;5066648;28;19960;-64
2020/12/10 00:52:14;;;;;;;52.80;7.55;;;19.50;29.60;;;;;;5071348;28;20438;-63
2020/12/10 00:54:41;;;;;;;50.63;7.35;;;19.50;29.60;;;;;;5077356;28;20072;-64
2020/12/10 00:57:09;;;;;;;83.28;8.10;;;19.40;30.20;;;;;;5077069;28;20075;-63
2020/12/10 00:59:37;;;;;;;54.40;8.80;;;19.30;30.60;;;;;;5073960;28;20093;-64
2020/12/10 01:02:04;;;;;;;88.13;10.20;;;19.20;30.40;;;;;;5070295;28;20113;-63
2020/12/10 01:04:30;;;;;;;52.75;9.32;;;19.10;29.50;;;;;;5069035;28;20154;-63
2020/12/10 01:06:57;;;;;;;75.88;11.45;;;19.00;29.50;;;;;;5073423;28;20101;-65
2020/12/10 01:09:23;;;;;;;;;;;18.90;30.00;;;;;;5056809;28;20076;-64
2020/12/10 01:11:50;;;;;;;80.57;10.68;;;18.90;30.40;;;;;;5069927;28;19961;-63
2020/12/10 01:14:18;;;;;;;;;;;18.70;30.60;;;;;;5072238;28;20070;-64
2020/12/10 01:16:45;;;;;;;76.43;10.70;;;18.60;30.50;;;;;;5073470;28;20005;-65
2020/12/10 01:19:12;;;;;;;69.20;11.45;;;18.60;31.40;;;;;;5069542;28;20077;-63
2020/12/10 01:21:39;;;;;;;88.20;14.48;;;18.50;31.40;;;;;;5071010;28;20077;-64
2020/12/10 01:24:06;;;;;;;91.93;15.75;;;18.40;31.80;;;;;;5054922;28;20080;-61
2020/12/10 01:26:35;;;;;;;87.85;15.93;;;18.30;32.00;;;;;;5065122;28;20252;-63
2020/12/10 01:29:03;;;;;;;91.22;16.90;;;18.20;32.40;;;;;;5070297;28;20426;-61
2020/12/10 01:31:29;;;;;;;89.15;15.95;;;18.20;32.50;;;;;;5064068;28;20077;-63
2020/12/10 01:33:56;;;;;;;88.65;16.65;;;18.10;32.40;;;;;;5068245;28;20085;-63
2020/12/10 01:36:27;;;;;;;;;;;18.00;32.20;;;;;;5069376;28;20146;-65
2020/12/10 01:38:54;;;;;;;80.93;14.30;;;17.90;32.80;;;;;;5044564;28;20360;-65
2020/12/10 01:41:26;;;;;;;83.53;15.80;;;17.80;32.50;;;;;;5068846;28;20135;-65
2020/12/10 01:44:11;;;;;;;116.00;22.05;;;17.70;32.60;;;;;;5073408;28;20065;-66
2020/12/10 01:46:40;;;;;;;90.10;19.63;;;17.60;32.90;;;;;;5056398;28;20206;-64
2020/12/10 01:49:08;;;;;;;92.22;21.83;;;17.50;32.80;;;;;;5070467;28;20160;-63
2020/12/10 01:51:35;;;;;;;79.03;18.15;;;17.40;32.80;;;;;;5069942;28;20095;-61
2020/12/10 01:54:04;;;;;;;88.60;18.75;;;17.40;32.70;;;;;;5069967;28;20073;-63
2020/12/10 01:56:31;;;;;;;79.35;17.10;;;17.30;33.50;;;;;;5074072;28;20084;-63
2020/12/10 01:59:00;;;;;;;98.97;18.42;;;17.30;34.20;;;;;;5032515;28;20069;-61
2020/12/10 02:01:29;;;;;;;96.95;16.50;;;17.20;34.20;;;;;;5064091;28;20168;-62
2020/12/10 02:03:56;;;;;;;102.20;17.02;;;17.10;34.00;;;;;;5047383;28;20085;-63
2020/12/10 02:06:24;;;;;;;104.82;19.10;;;17.10;33.80;;;;;;5075843;28;20085;-64
2020/12/10 02:08:50;;;;;;;82.80;16.60;;;17.00;34.00;;;;;;5065016;28;20088;-63
2020/12/10 02:11:16;;;;;;;;;;;17.00;34.60;;;;;;5067692;28;20101;-63
2020/12/10 02:13:43;;;;;;;90.65;15.60;;;16.90;35.50;;;;;;5070667;28;19960;-63
2020/12/10 02:16:09;;;;;;;;;;;16.80;35.10;;;;;;5074675;28;20073;-63
2020/12/10 02:18:37;;;;;;;91.53;17.30;;;16.80;36.00;;;;;;5071844;28;19980;-62
2020/12/10 02:21:04;;;;;;;83.85;18.15;;;16.70;35.40;;;;;;5070327;28;20104;-63
2020/12/10 02:23:31;;;;;;;77.95;17.85;;;16.70;35.20;;;;;;5070614;28;20542;-62
2020/12/10 02:25:57;;;;;;;;;;;16.60;35.70;;;;;;5065284;28;20100;-64
2020/12/10 02:28:24;;;;;;;95.47;18.38;;;16.60;35.70;;;;;;5069511;28;20034;-63
2020/12/10 02:30:50;;;;;;;;;;;16.50;35.90;;;;;;5070321;28;20127;-62
2020/12/10 02:33:18;;;;;;;84.40;19.55;;;16.50;37.00;;;;;;5071088;28;20116;-63
2020/12/10 02:35:45;;;;;;;101.00;19.90;;;16.40;36.70;;;;;;5036373;28;20097;-64
2020/12/10 02:38:12;;;;;;;105.22;20.85;;;16.30;36.50;;;;;;5069978;28;20092;-64
2020/12/10 02:40:44;;;;;;;114.70;21.90;;;16.30;36.70;;;;;;5068209;28;20116;-63
2020/12/10 02:43:12;;;;;;;95.63;19.90;;;16.20;37.00;;;;;;5069594;28;20144;-65
2020/12/10 02:45:39;;;;;;;129.48;23.38;;;16.20;37.50;;;;;;5050584;28;20188;-63
2020/12/10 02:48:08;;;;;;;155.18;24.88;;;16.20;37.70;;;;;;5068901;28;20088;-63
2020/12/10 02:50:35;;;;;;;159.68;27.02;;;16.10;38.00;;;;;;5069532;28;20069;-65
2020/12/10 02:53:03;;;;;;;186.88;30.40;;;16.10;38.00;;;;;;5068763;28;20130;-64
2020/12/10 02:55:30;;;;;;;280.35;41.20;;;16.00;37.70;;;;;;5070135;28;20440;-64
2020/12/10 02:57:56;;;;;;;288.77;42.50;;;16.00;37.70;;;;;;5069174;28;20533;-65
2020/12/10 03:00:23;;;;;;;267.73;39.13;;;16.00;38.30;;;;;;5068247;28;20162;-64
2020/12/10 03:02:49;;;;;;;;;;;16.00;38.70;;;;;;5071770;28;20152;-64
2020/12/10 03:05:17;;;;;;;;;;;15.90;38.90;;;;;;5068871;28;19956;-64
2020/12/10 03:07:43;;;;;;;243.48;41.55;;;15.90;38.90;;;;;;5069449;28;20428;-63
2020/12/10 03:10:10;;;;;;;209.60;43.35;;;15.80;38.70;;;;;;5052321;28;20077;-64
2020/12/10 03:12:36;;;;;;;240.38;41.72;;;15.80;38.80;;;;;;5051428;28;20081;-64
2020/12/10 03:15:05;;;;;;;183.55;43.55;;;15.80;39.60;;;;;;5070134;28;20084;-63
2020/12/10 03:17:32;;;;;;;169.27;40.65;;;15.70;39.30;;;;;;5070813;28;20108;-64
2020/12/10 03:19:58;;;;;;;176.00;40.35;;;15.80;39.40;;;;;;5068771;28;20104;-64
2020/12/10 03:22:24;;;;;;;;;;;15.80;39.70;;;;;;5065988;28;20077;-64
2020/12/10 03:24:51;;;;;;;174.65;42.13;;;15.80;40.00;;;;;;5066228;28;19991;-64
2020/12/10 03:27:19;;;;;;;164.80;40.42;;;15.70;40.20;;;;;;5068098;28;20584;-64
2020/12/10 03:29:46;;;;;;;175.82;39.75;;;15.70;40.50;;;;;;5048894;28;20234;-63
2020/12/10 03:32:15;;;;;;;163.52;38.53;;;15.70;40.30;;;;;;5077840;28;20097;-63
2020/12/10 03:34:41;;;;;;;;;;;15.70;40.40;;;;;;5053643;28;20571;-62
2020/12/10 03:37:08;;;;;;;147.45;34.70;;;15.70;40.80;;;;;;5072804;28;19965;-63
2020/12/10 03:39:34;;;;;;;140.73;33.85;;;15.70;40.80;;;;;;5070311;28;20127;-63
2020/12/10 03:42:00;;;;;;;;;;;15.70;41.10;;;;;;5067281;28;21510;-63
2020/12/10 03:44:28;;;;;;;116.15;29.88;;;15.60;41.00;;;;;;5052233;28;20044;-65
2020/12/10 03:46:54;;;;;;;108.35;25.98;;;15.50;41.00;;;;;;5068209;28;20081;-63
2020/12/10 03:49:21;;;;;;;128.25;24.70;;;15.50;41.20;;;;;;5066701;28;20154;-64
2020/12/10 03:51:48;;;;;;;137.57;25.27;;;15.50;41.10;;;;;;5069234;28;20081;-64
2020/12/10 03:54:15;;;;;;;118.93;24.55;;;15.50;41.00;;;;;;5066435;28;20080;-63
2020/12/10 03:56:42;;;;;;;119.80;23.80;;;15.50;41.10;;;;;;5073290;28;20108;-63
2020/12/10 03:59:08;;;;;;;;;;;15.50;41.30;;;;;;5052667;28;20073;-63
2020/12/10 04:01:35;;;;;;;128.15;22.65;;;15.50;42.00;;;;;;5051681;28;19981;-64
2020/12/10 04:04:01;;;;;;;116.85;23.73;;;15.50;41.90;;;;;;5065175;28;20065;-62
2020/12/10 04:06:28;;;;;;;120.57;22.20;;;15.50;41.40;;;;;;5067426;28;20091;-64
2020/12/10 04:08:54;;;;;;;105.50;21.90;;;15.50;42.10;;;;;;5052557;28;20081;-64
2020/12/10 04:11:20;;;;;;;;;;;15.50;41.50;;;;;;5051967;28;20109;-64
2020/12/10 04:13:47;;;;;;;97.38;22.75;;;15.50;41.70;;;;;;5051798;28;19964;-65
2020/12/10 04:16:14;;;;;;;109.18;29.25;;;15.50;41.80;;;;;;5068307;28;20465;-64
2020/12/10 04:18:42;;;;;;;116.25;32.40;;;15.40;42.20;;;;;;5066501;28;20073;-64
2020/12/10 04:21:09;;;;;;;114.38;31.67;;;15.50;42.10;;;;;;5068997;28;20544;-64
2020/12/10 04:23:36;;;;;;;133.07;27.75;;;15.50;42.20;;;;;;5054038;28;20105;-64
2020/12/10 04:26:04;;;;;;;135.63;28.30;;;15.40;42.70;;;;;;5052463;28;20160;-64
2020/12/10 04:28:31;;;;;;;235.57;33.80;;;15.70;50.00;;;;;;5047349;28;20131;-65
2020/12/10 04:30:58;;;;;;;188.65;33.38;;;15.40;42.70;;;;;;5055355;28;20069;-64
2020/12/10 04:33:25;;;;;;;230.57;36.35;;;15.40;43.00;;;;;;5050805;28;20127;-64
2020/12/10 04:35:52;;;;;;;202.68;35.58;;;15.50;51.90;;;;;;5038220;28;20078;-63
2020/12/10 04:38:18;;;;;;;165.20;29.98;;;15.40;42.90;;;;;;5047728;28;20065;-63
2020/12/10 04:40:46;;;;;;;115.30;27.40;;;15.30;42.90;;;;;;5047932;28;20093;-63
2020/12/10 04:43:14;;;;;;;105.43;28.15;;;15.30;42.90;;;;;;5057492;28;20188;-63
2020/12/10 04:45:43;;;;;;;120.50;29.63;;;15.30;42.80;;;;;;5052112;28;20553;-64
2020/12/10 04:48:10;;;;;;;118.72;29.27;;;15.30;42.60;;;;;;5036944;28;20131;-64
2020/12/10 04:50:44;;;;;;;96.05;26.10;;;15.30;42.10;;;;;;5039391;28;20710;-65
2020/12/10 04:53:11;;;;;;;111.85;28.52;;;15.40;42.90;;;;;;5043062;28;20468;-63
2020/12/10 04:55:38;;;;;;;95.82;25.90;;;15.30;42.00;;;;;;5041678;28;20081;-64
2020/12/10 04:58:05;;;;;;;115.50;26.45;;;15.30;42.50;;;;;;5035323;28;20085;-63
2020/12/10 05:00:35;;;;;;;116.65;26.20;;;15.30;42.80;;;;;;5048891;28;20542;-64
2020/12/10 05:03:04;;;;;;;96.60;26.48;;;15.40;43.00;;;;;;5027481;28;20192;-64
2020/12/10 05:05:34;;;;;;;108.03;26.92;;;15.40;42.90;;;;;;5055971;28;20414;-64
2020/12/10 05:08:03;;;;;;;125.78;28.63;;;15.30;42.70;;;;;;5022374;28;20198;-64
2020/12/10 05:10:41;;;;;;;107.57;27.95;;;15.30;42.90;;;;;;5040194;28;20106;-63
2020/12/10 05:13:10;;;;;;;125.63;27.67;;;15.30;43.30;;;;;;5034617;28;20525;-62
2020/12/10 05:15:38;;;;;;;114.22;28.15;;;15.30;43.40;;;;;;5056643;28;20074;-63
2020/12/10 05:18:06;;;;;;;103.07;28.63;;;15.30;43.60;;;;;;5044257;28;20156;-62
2020/12/10 05:20:46;;;;;;;121.72;29.05;;;15.30;43.40;;;;;;5038181;28;20089;-64
2020/12/10 05:23:17;;;;;;;95.45;26.90;;;15.20;43.40;;;;;;5038720;28;20161;-65
2020/12/10 05:25:51;;;;;;;119.85;27.48;;;15.20;43.60;;;;;;5037148;28;20096;-65
2020/12/10 05:28:20;;;;;;;135.00;31.10;;;15.10;43.60;;;;;;5063677;28;20108;-63
2020/12/10 05:31:04;;;;;;;142.65;31.08;;;15.00;43.20;;;;;;5052944;28;20069;-62
2020/12/10 05:33:32;;;;;;;119.32;30.27;;;15.00;43.80;;;;;;5040411;28;20165;-65
2020/12/10 05:36:10;;;;;;;115.97;29.98;;;15.00;44.10;;;;;;5039310;28;20099;-62
2020/12/10 05:39:12;;;;;;;134.25;31.00;;;14.90;43.80;;;;;;5035878;28;20088;-63
2020/12/10 05:41:41;;;;;;;112.28;28.70;;;15.00;44.30;;;;;;4973181;28;20098;-64
2020/12/10 05:44:23;;;;;;;118.43;31.73;;;14.90;44.50;;;;;;5041396;28;20531;-63
2020/12/10 05:46:51;;;;;;;135.20;28.15;;;14.90;44.00;;;;;;5053453;28;20115;-63
2020/12/10 05:49:18;;;;;;;115.13;28.38;;;14.80;44.50;;;;;;5055625;28;20674;-63
2020/12/10 05:51:50;;;;;;;105.70;28.85;;;14.90;45.00;;;;;;5057489;28;21469;-63
2020/12/10 05:54:20;;;;;;;106.18;29.42;;;14.80;44.80;;;;;;5052215;28;20440;-63
2020/12/10 05:56:57;;;;;;;107.38;29.17;;;14.80;44.60;;;;;;5037440;28;20073;-63
2020/12/10 05:59:34;;;;;;;114.50;29.42;;;14.80;44.80;;;;;;5055268;28;20084;-64
2020/12/10 06:02:10;;;;;;;117.85;31.85;;;14.90;45.40;;;;;;5055204;28;20452;-63
2020/12/10 06:04:36;;;;;;;108.15;32.20;;;14.90;45.50;;;;;;5057046;28;20065;-65
2020/12/10 06:07:04;;;;;;;102.45;31.38;;;14.90;45.70;;;;;;5039765;28;20098;-63
2020/12/10 06:09:30;;;;;;;107.72;33.17;;;14.90;45.90;;;;;;5056577;28;20163;-63
2020/12/10 06:12:04;;;;;;;113.50;33.70;;;14.80;45.80;;;;;;5056114;28;20073;-64
2020/12/10 06:14:32;;;;;;;118.25;32.38;;;14.80;45.70;;;;;;5057898;28;20460;-64
2020/12/10 06:17:09;;;;;;;120.78;32.00;;;14.80;46.20;;;;;;5045142;28;20078;-65
2020/12/10 06:19:37;;;;;;;105.65;30.58;;;14.80;46.10;;;;;;5052591;28;20471;-64
2020/12/10 06:22:33;;;;;;;95.78;29.13;;;14.80;46.60;;;;;;5052922;28;20069;-64
2020/12/10 06:25:01;;;;;;;86.85;29.17;;;14.80;45.80;;;;;;5057450;28;20084;-64
2020/12/10 06:27:33;;;;;;;108.78;30.65;;;14.70;45.70;;;;;;5038799;28;20510;-65
2020/12/10 06:30:21;;;;;;;123.30;31.45;;;14.70;45.40;;;;;;5059547;28;20080;-65
2020/12/10 06:32:51;;;;;;;135.68;34.17;;;14.80;46.00;;;;;;5051932;28;20101;-64
2020/12/10 06:35:35;;;;;;;124.35;33.47;;;14.80;46.10;;;;;;5055685;28;20526;-63
2020/12/10 06:38:06;;;;;;;101.00;30.02;;;14.80;46.20;;;;;;5054583;28;20092;-62
2020/12/10 06:40:40;;;;;;;118.68;31.13;;;14.80;46.00;;;;;;5056088;28;20093;-62
2020/12/10 06:43:09;;;;;;;125.63;30.88;;;14.80;46.00;;;;;;5059360;28;20064;-63
2020/12/10 06:45:41;;;;;;;116.35;31.02;;;14.80;46.00;;;;;;5036481;28;20089;-65
2020/12/10 06:48:14;;;;;;;120.05;32.75;;;14.80;45.30;;;;;;5040263;28;20495;-63
2020/12/10 06:50:41;;;;;;;133.65;31.70;;;14.70;45.40;;;;;;5037501;28;20101;-64
2020/12/10 06:53:15;;;;;;;111.72;31.60;;;14.70;45.50;;;;;;5027612;28;20090;-64
2020/12/10 06:55:58;;;;;;;116.95;32.25;;;14.70;45.60;;;;;;5057304;28;20072;-64
2020/12/10 06:58:37;;;;;;;125.97;31.90;;;14.70;45.50;;;;;;5060441;28;20245;-63
2020/12/10 07:01:37;;;;;;;122.55;33.90;;;14.70;45.70;;;;;;5068919;28;20128;-64
2020/12/10 07:07:09;;;;;;;114.47;31.23;;;14.70;45.90;;;;;;5042856;28;20073;-64
2020/12/10 07:10:11;;;;;;;135.00;32.38;;;14.70;46.30;;;;;;5054902;28;20146;-64
2020/12/10 07:12:45;;;;;;;115.63;33.15;;;14.60;46.10;;;;;;5054447;28;20076;-64
2020/12/10 07:15:15;;;;;;;120.68;30.75;;;14.50;46.20;;;;;;5050810;28;21733;-64
2020/12/10 07:17:47;;;;;;;116.25;31.63;;;14.40;46.20;;;;;;5047777;28;20073;-64
2020/12/10 07:20:14;;;;;;;107.00;29.75;;;14.50;46.60;;;;;;5059983;28;20452;-62
2020/12/10 07:22:41;;;;;;;118.78;30.17;;;14.50;46.60;;;;;;5059735;28;20174;-64
2020/12/10 07:25:09;;;;;;;105.07;32.65;;;14.40;47.00;;;;;;5042845;28;20576;-65
2020/12/10 07:27:36;;;;;;;119.68;30.88;;;14.40;46.60;;;;;;5045104;28;20208;-64
2020/12/10 07:30:13;;;;;;;106.50;30.48;;;14.40;46.60;;;;;;5053944;28;20530;-64
2020/12/10 07:32:40;;;;;;;98.15;31.45;;;14.40;47.00;;;;;;5068875;28;20076;-63
2020/12/10 07:35:08;;;;;;;118.60;31.75;;;14.40;46.80;;;;;;5052226;28;20541;-65
2020/12/10 07:37:36;;;;;;;139.48;32.53;;;14.40;47.10;;;;;;5045890;28;20135;-63
2020/12/10 07:40:20;;;;;;;125.03;34.67;;;14.40;46.80;;;;;;5080927;28;20105;-64
2020/12/10 07:42:46;;;;;;;150.70;38.85;;;14.30;46.50;;;;;;5050578;28;20073;-63
2020/12/10 07:45:15;;;;;;;115.30;35.03;;;14.30;46.60;;;;;;5051543;28;20482;-63
2020/12/10 07:47:42;;;;;;;127.28;35.72;;;14.30;47.10;;;;;;5067991;28;20126;-63
2020/12/10 07:50:22;;;;;;;118.53;36.83;;;14.20;46.80;;;;;;5054931;28;20073;-64
2020/12/10 07:52:50;;;;;;;145.73;39.47;;;14.10;46.70;;;;;;5050417;28;20126;-61
2020/12/10 07:55:23;;;;;;;161.57;43.83;;;14.10;46.60;;;;;;5049740;28;20122;-62
2020/12/10 07:58:11;;;;;;;168.98;45.30;;;14.00;46.00;;;;;;5067218;28;20069;-64
2020/12/10 08:00:39;;;;;;;165.70;42.15;;;13.90;45.60;;;;;;5057772;28;20097;-63
2020/12/10 08:03:13;;;;;;;136.68;34.22;;;13.90;45.60;;;;;;5067889;28;20525;-63
2020/12/10 08:05:41;;;;;;;110.50;30.70;;;13.90;45.60;;;;;;5049832;28;20536;-63
2020/12/10 08:08:08;;;;;;;114.53;27.33;;;13.90;45.40;;;;;;5065250;28;20073;-63
2020/12/10 08:10:35;;;;;;;109.95;27.15;;;14.00;46.10;;;;;;5067233;28;20870;-62
2020/12/10 08:13:19;;;;;;;96.43;27.35;;;14.00;45.90;;;;;;5052581;28;20099;-62
2020/12/10 08:15:48;;;;;;;122.35;27.75;;;14.00;46.00;;;;;;5067701;28;20065;-64
2020/12/10 08:18:20;;;;;;;111.00;27.13;;;14.10;46.00;;;;;;5066878;28;20514;-63
2020/12/10 08:20:49;;;;;;;109.15;24.60;;;14.10;45.80;;;;;;5066291;28;20105;-62
2020/12/10 08:23:18;;;;;;;84.85;23.55;;;14.00;45.40;;;;;;5049826;28;20077;-61
2020/12/10 08:25:46;;;;;;;81.95;21.50;;;13.90;45.10;;;;;;5065825;28;20452;-62
2020/12/10 08:28:13;;;;;;;91.05;21.17;;;14.00;45.00;;;;;;5067296;28;21547;-63
2020/12/10 08:30:54;;;;;;;68.85;18.50;;;14.00;44.90;;;;;;5048601;28;20073;-65
2020/12/10 08:33:21;;;;;;;80.45;18.25;;;13.90;44.60;;;;;;5072454;28;20172;-63
2020/12/10 08:35:56;;;;;;;63.35;18.75;;;13.80;44.80;;;;;;5067462;28;20138;-62
2020/12/10 08:38:23;;;;;;;67.47;18.52;;;13.90;45.20;;;;;;5052185;28;20152;-63
2020/12/10 08:41:10;;;;;;;71.35;18.60;;;13.90;45.20;;;;;;5067168;28;20104;-64
2020/12/10 08:43:37;;;;;;;74.65;19.65;;;13.90;45.00;;;;;;5067316;28;20110;-63
2020/12/10 08:46:14;;;;;;;74.45;20.05;;;13.80;45.10;;;;;;5064944;28;20073;-63
2020/12/10 08:48:41;;;;;;;62.83;18.90;;;13.80;45.20;;;;;;5047418;28;20088;-63
2020/12/10 08:51:07;;;;;;;71.07;18.40;;;13.90;45.60;;;;;;5067550;28;20083;-63
2020/12/10 08:53:34;;;;;;;;;;;13.90;45.70;;;;;;5071670;28;20077;-63
2020/12/10 08:56:03;;;;;;;88.28;21.33;;;13.90;45.80;;;;;;5066984;28;19963;-64
2020/12/10 08:58:30;;;;;;;100.65;22.63;;;13.80;46.20;;;;;;5068517;28;20156;-63
2020/12/10 09:00:59;;;;;;;71.65;20.52;;;13.80;46.60;;;;;;5070898;28;20099;-63
2020/12/10 09:03:26;;;;;;;91.32;22.02;;;13.80;46.90;;;;;;5069084;28;20079;-64
2020/12/10 09:06:12;;;;;;;;;;;13.70;46.70;;;;;;5069578;28;20534;-63
2020/12/10 09:08:38;;;;;;;91.88;23.00;;;13.70;47.00;;;;;;5071586;28;19984;-63
2020/12/10 09:11:04;;;;;;;;;;;13.70;47.50;;;;;;5085325;28;20076;-63
2020/12/10 09:13:31;;;;;;;81.22;23.15;;;13.70;47.50;;;;;;5052065;28;20059;-63
2020/12/10 09:16:09;;;;;;;85.82;24.13;;;13.70;47.40;;;;;;5067873;28;20434;-63
2020/12/10 09:18:36;;;;;;;114.22;25.48;;;13.70;47.30;;;;;;5074266;28;20549;-63
2020/12/10 09:21:05;;;;;;;95.20;23.88;;;13.80;47.80;;;;;;5081526;28;20483;-63
2020/12/10 09:23:32;;;;;;;80.90;24.35;;;13.80;48.10;;;;;;5043681;28;20160;-63
2020/12/10 09:25:58;;;;;;;93.63;24.70;;;13.80;48.10;;;;;;5076930;28;20074;-63
2020/12/10 09:28:25;;;;;;;94.95;26.13;;;13.70;48.50;;;;;;5069291;28;20117;-64
2020/12/10 09:30:51;;;;;;;;;;;13.70;48.30;;;;;;5072146;28;20447;-63
2020/12/10 09:33:18;;;;;;;84.68;23.63;;;13.70;48.50;;;;;;5069305;28;19960;-63
2020/12/10 09:35:44;;;;;;;;;;;13.60;48.80;;;;;;5068296;28;20522;-63
2020/12/10 09:38:11;;;;;;;85.30;23.17;;;13.60;48.50;;;;;;5051055;28;19967;-63
2020/12/10 09:40:38;;;;;;;93.50;25.08;;;13.60;48.60;;;;;;5068795;28;20093;-63
2020/12/10 09:43:04;;;;;;;;;;;13.50;48.70;;;;;;5068426;28;20078;-63
2020/12/10 09:45:37;;;;;;;116.38;30.27;;;13.50;48.70;;;;;;5068696;28;19957;-63
2020/12/10 09:48:25;;;;;;;121.50;32.78;;;13.40;48.60;;;;;;5066885;28;20304;-62
2020/12/10 09:50:51;;;;;;;;;;;13.40;48.80;;;;;;5070511;28;20073;-62
2020/12/10 09:53:22;;;;;;;144.07;37.13;;;13.40;48.60;;;;;;5070176;28;20305;-63
2020/12/10 09:56:37;;;;;;;160.38;37.97;;;13.30;48.50;;;;;;5063669;28;20089;-63
2020/12/10 09:58:52;;;;;;;134.73;38.92;;;13.30;48.30;;;;;;5065411;28;20081;-64
2020/12/10 10:01:19;;;;;;;165.52;42.45;;;13.40;48.60;;;;;;5064002;28;20234;-63
2020/12/10 10:03:48;;;;;;;128.55;40.53;;;13.40;48.70;;;;;;5067150;28;20156;-64
2020/12/10 10:06:16;;;;;;;151.13;42.35;;;13.40;48.70;;;;;;5070057;28;20088;-63
2020/12/10 10:09:07;;;;;;;142.05;41.22;;;13.40;48.50;;;;;;5068123;28;20069;-63
2020/12/10 10:11:35;;;;;;;121.10;37.42;;;13.40;48.80;;;;;;5057260;28;20168;-64
2020/12/10 10:14:03;;;;;;;124.60;38.55;;;13.50;49.10;;;;;;5066079;28;20073;-63
2020/12/10 10:16:32;;;;;;;164.60;38.47;;;13.60;50.10;;;;;;5067033;28;20541;-64
2020/12/10 10:19:10;;;;;;;136.27;37.67;;;13.50;49.70;;;;;;5053941;28;20077;-63
2020/12/10 10:21:38;;;;;;;141.23;39.17;;;13.50;50.20;;;;;;5065050;28;20097;-64
2020/12/10 10:24:08;;;;;;;159.77;43.00;;;13.50;50.70;;;;;;5056576;28;20078;-64
2020/12/10 10:26:35;;;;;;;159.80;43.65;;;13.50;50.90;;;;;;5058830;28;20568;-63
2020/12/10 10:29:06;;;;;;;171.20;42.80;;;13.60;51.50;;;;;;5068361;28;20461;-63
2020/12/10 10:31:35;;;;;;;156.95;43.38;;;13.60;51.70;;;;;;5069312;28;20080;-63
2020/12/10 10:34:02;;;;;;;192.73;47.38;;;13.60;51.80;;;;;;5068914;28;20112;-64
2020/12/10 10:36:28;;;;;;;169.23;51.80;;;13.60;51.60;;;;;;5069354;28;20070;-64
2020/12/10 10:39:00;;;;;;;;;;;13.70;51.00;;;;;;5067840;28;20085;-64
2020/12/10 10:41:27;;;;;;;184.25;52.70;;;13.60;50.20;;;;;;5034324;28;19992;-64
2020/12/10 10:43:55;;;;;;;;;;;13.70;49.80;;;;;;5053893;28;20069;-64
2020/12/10 10:46:24;;;;;;;172.70;53.15;;;13.70;49.50;;;;;;5056626;28;20010;-64
2020/12/10 10:48:50;;;;;;;180.27;52.78;;;13.70;49.80;;;;;;5055533;28;20084;-64
2020/12/10 10:51:16;;;;;;;;;;;13.60;49.40;;;;;;5055436;28;20077;-64
2020/12/10 10:53:44;;;;;;;144.25;47.70;;;13.60;49.00;;;;;;5070182;28;19961;-64
2020/12/10 10:56:17;;;;;;;156.52;42.97;;;13.60;49.20;;;;;;5069470;28;20399;-63
2020/12/10 10:58:48;;;;;;;155.25;41.33;;;13.60;49.00;;;;;;5053881;28;20536;-64
2020/12/10 11:01:15;;;;;;;130.35;41.25;;;13.60;48.40;;;;;;5053200;28;20104;-63
2020/12/10 11:03:42;;;;;;;131.68;38.13;;;13.60;48.70;;;;;;5029585;28;21553;-63
2020/12/10 11:06:14;;;;;;;146.65;40.97;;;13.60;48.70;;;;;;5066575;28;20127;-64
2020/12/10 11:08:42;;;;;;;151.52;41.03;;;13.60;48.80;;;;;;5065860;28;20156;-63
2020/12/10 11:11:09;;;;;;;148.43;41.35;;;13.60;49.10;;;;;;5076366;28;20675;-63
2020/12/10 11:13:35;;;;;;;;;;;13.50;49.50;;;;;;5080390;28;20152;-63
2020/12/10 11:16:24;;;;;;;162.43;42.35;;;13.50;49.20;;;;;;5068601;28;19957;-62
2020/12/10 11:18:51;;;;;;;137.02;41.80;;;13.60;49.20;;;;;;5069085;28;20105;-63
2020/12/10 11:21:37;;;;;;;132.45;40.72;;;13.50;49.00;;;;;;5054696;28;20174;-64
2020/12/10 11:24:04;;;;;;;139.73;41.45;;;13.60;49.00;;;;;;5067804;28;20073;-64
2020/12/10 11:26:31;;;;;;;;;;;13.60;49.00;;;;;;5068091;28;20073;-64
2020/12/10 11:29:20;;;;;;;158.35;41.83;;;13.60;49.30;;;;;;5067983;28;20001;-63
2020/12/10 11:31:46;;;;;;;142.23;40.97;;;13.60;49.10;;;;;;5069177;28;20069;-63
2020/12/10 11:34:12;;;;;;;;;;;13.60;48.90;;;;;;5069761;28;20104;-63
2020/12/10 11:36:39;;;;;;;135.35;37.90;;;13.60;48.50;;;;;;5068195;28;19968;-63
2020/12/10 11:39:28;;;;;;;119.70;37.38;;;13.60;48.10;;;;;;5053675;28;20076;-63
2020/12/10 11:41:54;;;;;;;110.80;34.30;;;13.60;47.70;;;;;;5055920;28;20653;-63
2020/12/10 11:44:20;;;;;;;;;;;13.60;47.00;;;;;;5068734;28;20475;-63
2020/12/10 11:46:50;;;;;;;107.95;33.33;;;13.60;46.40;;;;;;5068052;28;19961;-64
2020/12/10 11:49:19;;;;;;;96.35;31.67;;;13.60;46.40;;;;;;5069127;28;20073;-64
2020/12/10 11:51:46;;;;;;;103.47;33.72;;;13.60;46.00;;;;;;5051196;28;20073;-63
2020/12/10 11:54:13;;;;;;;;;;;13.60;46.20;;;;;;5052469;28;20490;-63
2020/12/10 11:56:44;;;;;;;94.47;31.35;;;13.60;45.60;;;;;;5068702;28;20030;-63
2020/12/10 11:59:32;;;;;;;111.38;34.28;;;13.50;45.70;;;;;;5068880;28;20577;-63
2020/12/10 12:01:58;;;;;;;;;;;13.50;45.70;;;;;;5051474;28;20433;-63
2020/12/10 12:04:27;;;;;;;98.97;33.97;;;13.40;45.80;;;;;;5068724;28;20043;-62
2020/12/10 12:06:53;;;;;;;100.30;32.20;;;13.30;46.40;;;;;;5063754;28;20084;-63
2020/12/10 12:09:22;;;;;;;;;;;13.30;46.60;;;;;;5068499;28;20109;-63
2020/12/10 12:12:01;;;;;;;119.97;32.67;;;13.20;46.70;;;;;;5048247;28;19961;-62
2020/12/10 12:14:48;;;;;;;127.70;34.90;;;13.20;46.90;;;;;;5067341;28;20077;-63
2020/12/10 12:17:14;;;;;;;108.40;34.67;;;13.10;46.70;;;;;;5064337;28;20104;-63
2020/12/10 12:19:40;;;;;;;;;;;13.10;47.00;;;;;;5068173;28;20093;-63
2020/12/10 12:22:07;;;;;;;105.15;33.40;;;13.00;47.60;;;;;;5067405;28;19977;-63
2020/12/10 12:24:33;;;;;;;;;;;13.00;47.80;;;;;;5069606;28;20084;-64
2020/12/10 12:27:03;;;;;;;105.22;33.85;;;13.00;47.70;;;;;;5052999;28;20392;-63
2020/12/10 12:29:29;;;;;;;131.50;33.97;;;12.90;48.10;;;;;;5071834;28;20069;-64
2020/12/10 12:31:55;;;;;;;;;;;12.90;48.30;;;;;;5072440;28;20183;-63
2020/12/10 12:34:22;;;;;;;107.57;33.03;;;12.80;48.50;;;;;;5073536;28;20413;-63
2020/12/10 12:36:48;;;;;;;105.50;33.53;;;12.80;49.50;;;;;;5072115;28;20081;-63
2020/12/10 12:39:35;;;;;;;125.32;34.63;;;12.70;48.90;;;;;;5069783;28;20582;-63
2020/12/10 12:42:07;;;;;;;103.78;34.47;;;12.70;49.00;;;;;;5052129;28;20097;-62
2020/12/10 12:44:37;;;;;;;119.20;35.47;;;12.60;49.10;;;;;;5072067;28;20130;-63
2020/12/10 12:47:08;;;;;;;116.60;34.20;;;12.60;49.60;;;;;;5071019;28;20486;-65
2020/12/10 12:49:35;;;;;;;117.72;35.90;;;12.60;49.60;;;;;;5071445;28;20164;-64